sensor_id;sensor_type;location;lat;lon;timestamp;temperature;humidity
7028;DHT22;3555;53.248;10.336;2023-12-20T00:00:19;6.70;99.90
7028;DHT22;3555;53.248;10.336;2023-12-20T00:02:46;6.70;99.90
7028;DHT22;3555;53.248;10.336;2023-12-20T00:05:13;6.70;99.90
7028;DHT22;3555;53.248;10.336;2023-12-20T00:07:40;6.60;99.90
7028;DHT22;3555;53.248;10.336;2023-12-20T00:10:07;6.60;99.90
7028;DHT22;3555;53.248;10.336;2023-12-20T00:12:36;6.60;99.90
7028;DHT22;3555;53.248;10.336;2023-12-20T00:15:03;6.60;99.90
7028;DHT22;3555;53.248;10.336;2023-12-20T00:17:30;6.50;99.90
7028;DHT22;3555;53.248;10.336;2023-12-20T00:19:56;6.40;99.90
7028;DHT22;3555;53.248;10.336;2023-12-20T00:22:23;6.50;99.90
7028;DHT22;3555;53.248;10.336;2023-12-20T00:24:50;6.50;99.90
7028;DHT22;3555;53.248;10.336;2023-12-20T00:27:17;6.50;99.90
7028;DHT22;3555;53.248;10.336;2023-12-20T00:29:45;6.80;99.90
7028;DHT22;3555;53.248;10.336;2023-12-20T00:32:15;6.70;99.90
7028;DHT22;3555;53.248;10.336;2023-12-20T00:34:42;6.70;99.90
7028;DHT22;3555;53.248;10.336;2023-12-20T00:37:09;6.70;99.90
7028;DHT22;3555;53.248;10.336;2023-12-20T00:39:36;6.50;99.90
7028;DHT22;3555;53.248;10.336;2023-12-20T00:42:03;6.30;99.90
7028;DHT22;3555;53.248;10.336;2023-12-20T00:44:30;6.40;99.90
7028;DHT22;3555;53.248;10.336;2023-12-20T00:46:59;6.30;99.90
7028;DHT22;3555;53.248;10.336;2023-12-20T00:49:26;6.50;99.90
7028;DHT22;3555;53.248;10.336;2023-12-20T00:51:53;6.50;99.90
7028;DHT22;3555;53.248;10.336;2023-12-20T00:54:20;6.50;99.90
7028;DHT22;3555;53.248;10.336;2023-12-20T00:56:47;6.40;99.90
7028;DHT22;3555;53.248;10.336;2023-12-20T00:59:15;6.40;99.90
7028;DHT22;3555;53.248;10.336;2023-12-20T01:01:42;6.30;99.90
7028;DHT22;3555;53.248;10.336;2023-12-20T01:04:10;6.20;99.90
7028;DHT22;3555;53.248;10.336;2023-12-20T01:06:37;6.10;99.90
7028;DHT22;3555;53.248;10.336;2023-12-20T01:09:04;6.00;99.90
7028;DHT22;3555;53.248;10.336;2023-12-20T01:11:31;6.40;99.90
7028;DHT22;3555;53.248;10.336;2023-12-20T01:13:57;6.10;99.90
7028;DHT22;3555;53.248;10.336;2023-12-20T01:16:24;5.90;99.90
7028;DHT22;3555;53.248;10.336;2023-12-20T01:18:51;5.90;99.90
7028;DHT22;3555;53.248;10.336;2023-12-20T01:21:19;5.90;99.90
7028;DHT22;3555;53.248;10.336;2023-12-20T01:23:46;5.80;99.90
7028;DHT22;3555;53.248;10.336;2023-12-20T01:26:14;5.70;99.90
7028;DHT22;3555;53.248;10.336;2023-12-20T01:28:42;5.70;99.90
7028;DHT22;3555;53.248;10.336;2023-12-20T01:31:09;5.70;99.90
7028;DHT22;3555;53.248;10.336;2023-12-20T01:33:35;5.60;99.90
7028;DHT22;3555;53.248;10.336;2023-12-20T01:36:03;5.60;99.90
7028;DHT22;3555;53.248;10.336;2023-12-20T01:38:31;5.60;99.90
7028;DHT22;3555;53.248;10.336;2023-12-20T01:40:58;5.60;99.90
7028;DHT22;3555;53.248;10.336;2023-12-20T01:43:25;5.50;99.90
7028;DHT22;3555;53.248;10.336;2023-12-20T01:45:52;5.60;99.90
7028;DHT22;3555;53.248;10.336;2023-12-20T01:48:20;5.50;99.90
7028;DHT22;3555;53.248;10.336;2023-12-20T01:50:47;5.60;99.90
7028;DHT22;3555;53.248;10.336;2023-12-20T01:53:15;5.70;99.90
7028;DHT22;3555;53.248;10.336;2023-12-20T01:55:44;5.70;99.90
7028;DHT22;3555;53.248;10.336;2023-12-20T01:58:12;5.60;99.90
7028;DHT22;3555;53.248;10.336;2023-12-20T02:00:40;5.60;99.90
7028;DHT22;3555;53.248;10.336;2023-12-20T02:03:07;5.60;99.90
7028;DHT22;3555;53.248;10.336;2023-12-20T02:05:35;5.50;99.90
7028;DHT22;3555;53.248;10.336;2023-12-20T02:08:02;5.50;99.90
7028;DHT22;3555;53.248;10.336;2023-12-20T02:10:30;5.60;99.90
7028;DHT22;3555;53.248;10.336;2023-12-20T02:12:58;5.50;99.90
7028;DHT22;3555;53.248;10.336;2023-12-20T02:15:25;5.50;99.90
7028;DHT22;3555;53.248;10.336;2023-12-20T02:17:52;5.50;99.90
7028;DHT22;3555;53.248;10.336;2023-12-20T02:20:19;5.40;99.90
7028;DHT22;3555;53.248;10.336;2023-12-20T02:22:47;5.30;99.90
7028;DHT22;3555;53.248;10.336;2023-12-20T02:25:14;5.30;99.90
7028;DHT22;3555;53.248;10.336;2023-12-20T02:27:41;5.30;99.90
7028;DHT22;3555;53.248;10.336;2023-12-20T02:30:10;5.20;99.90
7028;DHT22;3555;53.248;10.336;2023-12-20T02:32:36;5.30;99.90
7028;DHT22;3555;53.248;10.336;2023-12-20T02:35:04;5.30;99.90
7028;DHT22;3555;53.248;10.336;2023-12-20T02:37:31;5.20;99.90
7028;DHT22;3555;53.248;10.336;2023-12-20T02:40:00;5.20;99.90
7028;DHT22;3555;53.248;10.336;2023-12-20T02:42:27;5.90;99.90
7028;DHT22;3555;53.248;10.336;2023-12-20T02:44:54;5.30;99.90
7028;DHT22;3555;53.248;10.336;2023-12-20T02:47:20;5.30;99.90
7028;DHT22;3555;53.248;10.336;2023-12-20T02:49:47;5.30;99.90
7028;DHT22;3555;53.248;10.336;2023-12-20T02:52:14;5.40;99.90
7028;DHT22;3555;53.248;10.336;2023-12-20T02:54:41;5.40;99.90
7028;DHT22;3555;53.248;10.336;2023-12-20T02:57:09;5.30;99.90
7028;DHT22;3555;53.248;10.336;2023-12-20T02:59:37;5.20;99.90
7028;DHT22;3555;53.248;10.336;2023-12-20T03:02:03;5.20;99.90
7028;DHT22;3555;53.248;10.336;2023-12-20T03:04:30;5.30;99.90
7028;DHT22;3555;53.248;10.336;2023-12-20T03:06:57;5.20;99.90
7028;DHT22;3555;53.248;10.336;2023-12-20T03:09:24;5.60;99.90
7028;DHT22;3555;53.248;10.336;2023-12-20T03:11:51;5.40;99.90
7028;DHT22;3555;53.248;10.336;2023-12-20T03:14:19;5.40;99.90
7028;DHT22;3555;53.248;10.336;2023-12-20T03:16:47;5.30;99.90
7028;DHT22;3555;53.248;10.336;2023-12-20T03:19:15;5.30;99.90
7028;DHT22;3555;53.248;10.336;2023-12-20T03:21:42;5.20;99.90
7028;DHT22;3555;53.248;10.336;2023-12-20T03:24:09;5.10;99.90
7028;DHT22;3555;53.248;10.336;2023-12-20T03:26:36;5.10;99.90
7028;DHT22;3555;53.248;10.336;2023-12-20T03:29:03;5.00;99.90
7028;DHT22;3555;53.248;10.336;2023-12-20T03:31:31;5.00;99.90
7028;DHT22;3555;53.248;10.336;2023-12-20T03:33:58;5.10;99.90
7028;DHT22;3555;53.248;10.336;2023-12-20T03:36:25;5.10;99.90
7028;DHT22;3555;53.248;10.336;2023-12-20T03:38:52;5.00;99.90
7028;DHT22;3555;53.248;10.336;2023-12-20T03:41:18;4.90;99.90
7028;DHT22;3555;53.248;10.336;2023-12-20T03:43:45;5.00;99.90
7028;DHT22;3555;53.248;10.336;2023-12-20T03:46:12;4.90;99.90
7028;DHT22;3555;53.248;10.336;2023-12-20T03:48:40;5.00;99.90
7028;DHT22;3555;53.248;10.336;2023-12-20T03:51:07;5.00;99.90
7028;DHT22;3555;53.248;10.336;2023-12-20T03:53:34;4.90;99.90
7028;DHT22;3555;53.248;10.336;2023-12-20T03:56:01;5.00;99.90
7028;DHT22;3555;53.248;10.336;2023-12-20T03:58:28;5.00;99.90
7028;DHT22;3555;53.248;10.336;2023-12-20T04:00:55;5.30;99.90
7028;DHT22;3555;53.248;10.336;2023-12-20T04:03:21;5.10;99.90
7028;DHT22;3555;53.248;10.336;2023-12-20T04:05:50;5.00;99.90
7028;DHT22;3555;53.248;10.336;2023-12-20T04:08:17;5.00;99.90
7028;DHT22;3555;53.248;10.336;2023-12-20T04:10:43;5.10;99.90
7028;DHT22;3555;53.248;10.336;2023-12-20T04:13:10;5.00;99.90
7028;DHT22;3555;53.248;10.336;2023-12-20T04:15:37;5.00;99.90
7028;DHT22;3555;53.248;10.336;2023-12-20T04:18:04;5.00;99.90
7028;DHT22;3555;53.248;10.336;2023-12-20T04:20:31;5.10;99.90
7028;DHT22;3555;53.248;10.336;2023-12-20T04:22:59;5.30;99.90
7028;DHT22;3555;53.248;10.336;2023-12-20T04:25:26;5.10;99.90
7028;DHT22;3555;53.248;10.336;2023-12-20T04:27:53;5.30;99.90
7028;DHT22;3555;53.248;10.336;2023-12-20T04:30:20;5.20;99.90
7028;DHT22;3555;53.248;10.336;2023-12-20T04:32:47;5.10;99.90
7028;DHT22;3555;53.248;10.336;2023-12-20T04:35:14;5.10;99.90
7028;DHT22;3555;53.248;10.336;2023-12-20T04:37:40;5.10;99.90
7028;DHT22;3555;53.248;10.336;2023-12-20T04:40:09;5.20;99.90
7028;DHT22;3555;53.248;10.336;2023-12-20T04:42:37;5.20;99.90
7028;DHT22;3555;53.248;10.336;2023-12-20T04:45:04;5.20;99.90
7028;DHT22;3555;53.248;10.336;2023-12-20T04:47:31;5.20;99.90
7028;DHT22;3555;53.248;10.336;2023-12-20T04:49:58;5.20;99.90
7028;DHT22;3555;53.248;10.336;2023-12-20T04:52:25;5.30;99.90
7028;DHT22;3555;53.248;10.336;2023-12-20T04:54:52;5.40;99.90
7028;DHT22;3555;53.248;10.336;2023-12-20T04:57:21;5.30;99.90
7028;DHT22;3555;53.248;10.336;2023-12-20T04:59:48;5.50;99.90
7028;DHT22;3555;53.248;10.336;2023-12-20T05:02:15;5.30;99.90
7028;DHT22;3555;53.248;10.336;2023-12-20T05:04:42;5.30;99.90
7028;DHT22;3555;53.248;10.336;2023-12-20T05:07:08;5.30;99.90
7028;DHT22;3555;53.248;10.336;2023-12-20T05:09:35;5.50;99.90
7028;DHT22;3555;53.248;10.336;2023-12-20T05:12:03;5.30;99.90
7028;DHT22;3555;53.248;10.336;2023-12-20T05:14:31;5.30;99.90
7028;DHT22;3555;53.248;10.336;2023-12-20T05:16:58;5.40;99.90
7028;DHT22;3555;53.248;10.336;2023-12-20T05:19:25;5.40;99.90
7028;DHT22;3555;53.248;10.336;2023-12-20T05:21:52;5.40;99.90
7028;DHT22;3555;53.248;10.336;2023-12-20T05:24:19;5.40;99.90
7028;DHT22;3555;53.248;10.336;2023-12-20T05:26:45;5.40;99.90
7028;DHT22;3555;53.248;10.336;2023-12-20T05:29:12;5.40;99.90
7028;DHT22;3555;53.248;10.336;2023-12-20T05:31:40;5.50;99.90
7028;DHT22;3555;53.248;10.336;2023-12-20T05:34:07;5.60;99.90
7028;DHT22;3555;53.248;10.336;2023-12-20T05:36:35;5.50;99.90
7028;DHT22;3555;53.248;10.336;2023-12-20T05:39:02;5.50;99.90
7028;DHT22;3555;53.248;10.336;2023-12-20T05:41:30;5.40;99.90
7028;DHT22;3555;53.248;10.336;2023-12-20T05:43:57;5.40;99.90
7028;DHT22;3555;53.248;10.336;2023-12-20T05:46:24;5.50;99.90
7028;DHT22;3555;53.248;10.336;2023-12-20T05:48:53;5.50;99.90
7028;DHT22;3555;53.248;10.336;2023-12-20T05:51:19;5.50;99.90
7028;DHT22;3555;53.248;10.336;2023-12-20T05:53:48;5.40;99.90
7028;DHT22;3555;53.248;10.336;2023-12-20T05:56:15;5.40;99.90
7028;DHT22;3555;53.248;10.336;2023-12-20T05:58:42;5.40;99.90
7028;DHT22;3555;53.248;10.336;2023-12-20T06:01:10;5.50;99.90
7028;DHT22;3555;53.248;10.336;2023-12-20T06:03:40;5.40;99.90
7028;DHT22;3555;53.248;10.336;2023-12-20T06:06:09;5.50;99.90
7028;DHT22;3555;53.248;10.336;2023-12-20T06:08:36;5.60;99.90
7028;DHT22;3555;53.248;10.336;2023-12-20T06:11:03;5.60;99.90
7028;DHT22;3555;53.248;10.336;2023-12-20T06:13:30;5.60;99.90
7028;DHT22;3555;53.248;10.336;2023-12-20T06:15:57;5.60;99.90
7028;DHT22;3555;53.248;10.336;2023-12-20T06:18:24;5.60;99.90
7028;DHT22;3555;53.248;10.336;2023-12-20T06:20:51;5.60;99.90
7028;DHT22;3555;53.248;10.336;2023-12-20T06:23:19;5.50;99.90
7028;DHT22;3555;53.248;10.336;2023-12-20T06:25:46;5.60;99.90
7028;DHT22;3555;53.248;10.336;2023-12-20T06:28:13;5.50;99.90
7028;DHT22;3555;53.248;10.336;2023-12-20T06:30:41;5.50;99.90
7028;DHT22;3555;53.248;10.336;2023-12-20T06:33:08;5.50;99.90
7028;DHT22;3555;53.248;10.336;2023-12-20T06:35:35;5.40;99.90
7028;DHT22;3555;53.248;10.336;2023-12-20T06:38:02;5.60;99.90
7028;DHT22;3555;53.248;10.336;2023-12-20T06:40:30;5.60;99.90
7028;DHT22;3555;53.248;10.336;2023-12-20T06:42:57;5.60;99.90
7028;DHT22;3555;53.248;10.336;2023-12-20T06:45:25;5.60;99.90
7028;DHT22;3555;53.248;10.336;2023-12-20T06:47:52;5.60;99.90
7028;DHT22;3555;53.248;10.336;2023-12-20T06:50:20;5.60;99.90
7028;DHT22;3555;53.248;10.336;2023-12-20T06:52:47;5.60;99.90
7028;DHT22;3555;53.248;10.336;2023-12-20T06:55:13;5.60;99.90
7028;DHT22;3555;53.248;10.336;2023-12-20T06:57:42;5.50;99.90
7028;DHT22;3555;53.248;10.336;2023-12-20T07:00:11;5.50;99.90
7028;DHT22;3555;53.248;10.336;2023-12-20T07:02:38;5.50;99.90
7028;DHT22;3555;53.248;10.336;2023-12-20T07:05:05;5.50;99.90
7028;DHT22;3555;53.248;10.336;2023-12-20T07:07:32;5.50;99.90
7028;DHT22;3555;53.248;10.336;2023-12-20T07:09:59;5.50;99.90
7028;DHT22;3555;53.248;10.336;2023-12-20T07:12:26;5.60;99.90
7028;DHT22;3555;53.248;10.336;2023-12-20T07:14:55;5.60;99.90
7028;DHT22;3555;53.248;10.336;2023-12-20T07:17:22;5.60;99.90
7028;DHT22;3555;53.248;10.336;2023-12-20T07:19:49;5.60;99.90
7028;DHT22;3555;53.248;10.336;2023-12-20T07:22:16;5.60;99.90
7028;DHT22;3555;53.248;10.336;2023-12-20T07:24:43;5.60;99.90
7028;DHT22;3555;53.248;10.336;2023-12-20T07:27:09;5.60;99.90
7028;DHT22;3555;53.248;10.336;2023-12-20T07:29:36;5.60;99.90
7028;DHT22;3555;53.248;10.336;2023-12-20T07:32:05;5.70;99.90
7028;DHT22;3555;53.248;10.336;2023-12-20T07:34:34;5.70;99.90
7028;DHT22;3555;53.248;10.336;2023-12-20T07:37:00;5.70;99.90
7028;DHT22;3555;53.248;10.336;2023-12-20T07:39:27;5.70;99.90
7028;DHT22;3555;53.248;10.336;2023-12-20T07:41:54;5.60;99.90
7028;DHT22;3555;53.248;10.336;2023-12-20T07:44:21;5.60;99.90
7028;DHT22;3555;53.248;10.336;2023-12-20T07:46:48;5.60;99.90
7028;DHT22;3555;53.248;10.336;2023-12-20T07:49:16;5.60;99.90
7028;DHT22;3555;53.248;10.336;2023-12-20T07:51:43;5.60;99.90
7028;DHT22;3555;53.248;10.336;2023-12-20T07:54:10;5.70;99.90
7028;DHT22;3555;53.248;10.336;2023-12-20T07:56:37;5.70;99.90
7028;DHT22;3555;53.248;10.336;2023-12-20T07:59:05;5.70;99.90
7028;DHT22;3555;53.248;10.336;2023-12-20T08:01:32;5.60;99.90
7028;DHT22;3555;53.248;10.336;2023-12-20T08:03:59;5.70;99.90
7028;DHT22;3555;53.248;10.336;2023-12-20T08:06:27;5.70;99.90
7028;DHT22;3555;53.248;10.336;2023-12-20T08:08:54;5.70;99.90
7028;DHT22;3555;53.248;10.336;2023-12-20T08:11:21;5.70;99.90
7028;DHT22;3555;53.248;10.336;2023-12-20T08:13:48;5.60;99.90
7028;DHT22;3555;53.248;10.336;2023-12-20T08:16:14;5.70;99.90
7028;DHT22;3555;53.248;10.336;2023-12-20T08:18:43;5.70;99.90
7028;DHT22;3555;53.248;10.336;2023-12-20T08:21:09;5.60;99.90
7028;DHT22;3555;53.248;10.336;2023-12-20T08:23:38;5.70;99.90
7028;DHT22;3555;53.248;10.336;2023-12-20T08:26:05;5.70;99.90
7028;DHT22;3555;53.248;10.336;2023-12-20T08:28:32;5.70;99.90
7028;DHT22;3555;53.248;10.336;2023-12-20T08:30:59;5.70;99.90
7028;DHT22;3555;53.248;10.336;2023-12-20T08:33:26;5.70;99.90
7028;DHT22;3555;53.248;10.336;2023-12-20T08:35:53;5.70;99.90
7028;DHT22;3555;53.248;10.336;2023-12-20T08:38:20;5.70;99.90
7028;DHT22;3555;53.248;10.336;2023-12-20T08:40:48;5.70;99.90
7028;DHT22;3555;53.248;10.336;2023-12-20T08:43:15;5.70;99.90
7028;DHT22;3555;53.248;10.336;2023-12-20T08:45:42;5.70;99.90
7028;DHT22;3555;53.248;10.336;2023-12-20T08:48:09;5.70;99.90
7028;DHT22;3555;53.248;10.336;2023-12-20T08:50:35;5.70;99.90
7028;DHT22;3555;53.248;10.336;2023-12-20T08:53:03;5.80;99.90
7028;DHT22;3555;53.248;10.336;2023-12-20T08:55:29;5.80;99.90
7028;DHT22;3555;53.248;10.336;2023-12-20T08:57:59;5.90;99.90
7028;DHT22;3555;53.248;10.336;2023-12-20T09:00:26;5.90;99.90
7028;DHT22;3555;53.248;10.336;2023-12-20T09:02:53;6.00;99.90
7028;DHT22;3555;53.248;10.336;2023-12-20T09:05:21;6.00;99.90
7028;DHT22;3555;53.248;10.336;2023-12-20T09:07:48;6.10;99.90
7028;DHT22;3555;53.248;10.336;2023-12-20T09:10:14;6.10;99.90
7028;DHT22;3555;53.248;10.336;2023-12-20T09:12:41;6.10;99.90
7028;DHT22;3555;53.248;10.336;2023-12-20T09:15:10;6.10;99.90
7028;DHT22;3555;53.248;10.336;2023-12-20T09:17:36;6.10;99.90
7028;DHT22;3555;53.248;10.336;2023-12-20T09:20:04;6.10;99.90
7028;DHT22;3555;53.248;10.336;2023-12-20T09:22:32;6.20;99.90
7028;DHT22;3555;53.248;10.336;2023-12-20T09:24:59;6.10;99.90
7028;DHT22;3555;53.248;10.336;2023-12-20T09:27:27;6.10;99.90
7028;DHT22;3555;53.248;10.336;2023-12-20T09:29:54;6.10;99.90
7028;DHT22;3555;53.248;10.336;2023-12-20T09:32:22;6.00;99.90
7028;DHT22;3555;53.248;10.336;2023-12-20T09:34:49;6.00;99.90
7028;DHT22;3555;53.248;10.336;2023-12-20T09:37:16;6.00;99.90
7028;DHT22;3555;53.248;10.336;2023-12-20T09:39:42;5.90;99.90
7028;DHT22;3555;53.248;10.336;2023-12-20T09:42:11;6.00;99.90
7028;DHT22;3555;53.248;10.336;2023-12-20T09:44:43;5.90;99.90
7028;DHT22;3555;53.248;10.336;2023-12-20T09:47:10;5.90;99.90
7028;DHT22;3555;53.248;10.336;2023-12-20T09:49:38;5.90;99.90
7028;DHT22;3555;53.248;10.336;2023-12-20T09:52:07;6.00;99.90
7028;DHT22;3555;53.248;10.336;2023-12-20T09:54:36;6.00;99.90
7028;DHT22;3555;53.248;10.336;2023-12-20T09:57:04;6.00;99.90
7028;DHT22;3555;53.248;10.336;2023-12-20T09:59:31;6.00;99.90
7028;DHT22;3555;53.248;10.336;2023-12-20T10:01:58;6.00;99.90
7028;DHT22;3555;53.248;10.336;2023-12-20T10:04:32;6.10;99.90
7028;DHT22;3555;53.248;10.336;2023-12-20T10:07:03;6.10;99.90
7028;DHT22;3555;53.248;10.336;2023-12-20T10:09:31;5.90;99.90
7028;DHT22;3555;53.248;10.336;2023-12-20T10:11:58;5.80;99.90
7028;DHT22;3555;53.248;10.336;2023-12-20T10:14:25;5.60;99.90
7028;DHT22;3555;53.248;10.336;2023-12-20T10:16:52;5.60;99.90
7028;DHT22;3555;53.248;10.336;2023-12-20T10:19:19;5.70;99.90
7028;DHT22;3555;53.248;10.336;2023-12-20T10:21:46;5.80;99.90
7028;DHT22;3555;53.248;10.336;2023-12-20T10:24:18;5.80;99.90
7028;DHT22;3555;53.248;10.336;2023-12-20T10:26:45;5.90;99.90
7028;DHT22;3555;53.248;10.336;2023-12-20T10:29:12;5.90;99.90
7028;DHT22;3555;53.248;10.336;2023-12-20T10:31:39;5.90;99.90
7028;DHT22;3555;53.248;10.336;2023-12-20T10:34:06;5.90;99.90
7028;DHT22;3555;53.248;10.336;2023-12-20T10:36:33;6.00;99.90
7028;DHT22;3555;53.248;10.336;2023-12-20T10:39:01;6.00;99.90
7028;DHT22;3555;53.248;10.336;2023-12-20T10:41:31;6.00;99.90
7028;DHT22;3555;53.248;10.336;2023-12-20T10:43:59;5.90;99.90
7028;DHT22;3555;53.248;10.336;2023-12-20T10:46:27;5.80;99.90
7028;DHT22;3555;53.248;10.336;2023-12-20T10:48:56;5.80;99.90
7028;DHT22;3555;53.248;10.336;2023-12-20T10:51:24;5.80;99.90
7028;DHT22;3555;53.248;10.336;2023-12-20T10:53:52;5.80;99.90
7028;DHT22;3555;53.248;10.336;2023-12-20T10:56:20;5.80;99.90
7028;DHT22;3555;53.248;10.336;2023-12-20T10:58:50;5.80;99.90
7028;DHT22;3555;53.248;10.336;2023-12-20T11:01:18;5.80;99.90
7028;DHT22;3555;53.248;10.336;2023-12-20T11:03:49;5.90;99.90
7028;DHT22;3555;53.248;10.336;2023-12-20T11:06:27;5.90;99.90
7028;DHT22;3555;53.248;10.336;2023-12-20T11:09:03;5.90;99.90
7028;DHT22;3555;53.248;10.336;2023-12-20T11:11:41;5.90;99.90
7028;DHT22;3555;53.248;10.336;2023-12-20T11:14:16;5.90;99.90
7028;DHT22;3555;53.248;10.336;2023-12-20T11:16:45;5.80;99.90
7028;DHT22;3555;53.248;10.336;2023-12-20T11:19:12;5.90;99.90
7028;DHT22;3555;53.248;10.336;2023-12-20T11:21:40;6.00;99.90
7028;DHT22;3555;53.248;10.336;2023-12-20T11:24:07;6.00;99.90
7028;DHT22;3555;53.248;10.336;2023-12-20T11:26:34;6.10;99.90
7028;DHT22;3555;53.248;10.336;2023-12-20T11:29:30;6.00;99.90
7028;DHT22;3555;53.248;10.336;2023-12-20T11:32:00;6.10;99.90
7028;DHT22;3555;53.248;10.336;2023-12-20T11:34:28;6.10;99.90
7028;DHT22;3555;53.248;10.336;2023-12-20T11:36:59;6.10;99.90
7028;DHT22;3555;53.248;10.336;2023-12-20T11:39:27;6.20;99.90
7028;DHT22;3555;53.248;10.336;2023-12-20T11:41:55;6.10;99.90
7028;DHT22;3555;53.248;10.336;2023-12-20T11:44:24;6.10;99.90
7028;DHT22;3555;53.248;10.336;2023-12-20T11:46:54;6.10;99.90
7028;DHT22;3555;53.248;10.336;2023-12-20T11:49:23;6.20;99.90
7028;DHT22;3555;53.248;10.336;2023-12-20T11:51:51;6.20;99.90
7028;DHT22;3555;53.248;10.336;2023-12-20T11:54:18;6.30;99.90
7028;DHT22;3555;53.248;10.336;2023-12-20T11:56:46;6.20;99.90
7028;DHT22;3555;53.248;10.336;2023-12-20T11:59:14;6.20;99.90
7028;DHT22;3555;53.248;10.336;2023-12-20T12:01:48;6.30;99.90
7028;DHT22;3555;53.248;10.336;2023-12-20T12:04:16;6.20;99.90
7028;DHT22;3555;53.248;10.336;2023-12-20T12:06:43;6.20;99.90
7028;DHT22;3555;53.248;10.336;2023-12-20T12:09:10;6.20;99.90
7028;DHT22;3555;53.248;10.336;2023-12-20T12:11:37;6.30;99.90
7028;DHT22;3555;53.248;10.336;2023-12-20T12:14:04;6.40;99.90
7028;DHT22;3555;53.248;10.336;2023-12-20T12:16:31;6.40;99.90
7028;DHT22;3555;53.248;10.336;2023-12-20T12:18:58;6.50;99.90
7028;DHT22;3555;53.248;10.336;2023-12-20T12:21:27;6.40;99.90
7028;DHT22;3555;53.248;10.336;2023-12-20T12:23:54;6.50;99.90
7028;DHT22;3555;53.248;10.336;2023-12-20T12:26:32;6.50;99.90
7028;DHT22;3555;53.248;10.336;2023-12-20T12:28:59;6.50;99.90
7028;DHT22;3555;53.248;10.336;2023-12-20T12:31:26;6.60;99.90
7028;DHT22;3555;53.248;10.336;2023-12-20T12:33:53;6.50;99.90
7028;DHT22;3555;53.248;10.336;2023-12-20T12:36:19;6.50;99.90
7028;DHT22;3555;53.248;10.336;2023-12-20T12:38:48;6.50;99.90
7028;DHT22;3555;53.248;10.336;2023-12-20T12:41:14;6.50;99.90
7028;DHT22;3555;53.248;10.336;2023-12-20T12:43:42;6.50;99.90
7028;DHT22;3555;53.248;10.336;2023-12-20T12:46:08;6.50;99.90
7028;DHT22;3555;53.248;10.336;2023-12-20T12:48:35;6.50;99.90
7028;DHT22;3555;53.248;10.336;2023-12-20T12:51:02;6.50;99.90
7028;DHT22;3555;53.248;10.336;2023-12-20T12:53:29;6.50;99.90
7028;DHT22;3555;53.248;10.336;2023-12-20T12:55:58;6.40;99.90
7028;DHT22;3555;53.248;10.336;2023-12-20T12:58:24;6.50;99.90
7028;DHT22;3555;53.248;10.336;2023-12-20T13:00:51;6.30;99.90
7028;DHT22;3555;53.248;10.336;2023-12-20T13:03:19;6.20;99.90
7028;DHT22;3555;53.248;10.336;2023-12-20T13:05:46;6.10;99.90
7028;DHT22;3555;53.248;10.336;2023-12-20T13:08:13;6.00;99.90
7028;DHT22;3555;53.248;10.336;2023-12-20T13:10:40;6.10;99.90
7028;DHT22;3555;53.248;10.336;2023-12-20T13:13:08;6.00;99.90
7028;DHT22;3555;53.248;10.336;2023-12-20T13:15:35;6.00;99.90
7028;DHT22;3555;53.248;10.336;2023-12-20T13:18:02;5.90;99.90
7028;DHT22;3555;53.248;10.336;2023-12-20T13:20:30;6.00;99.90
7028;DHT22;3555;53.248;10.336;2023-12-20T13:22:57;6.00;99.90
7028;DHT22;3555;53.248;10.336;2023-12-20T13:25:24;6.00;99.90
7028;DHT22;3555;53.248;10.336;2023-12-20T13:27:50;6.00;99.90
7028;DHT22;3555;53.248;10.336;2023-12-20T13:30:19;6.10;99.90
7028;DHT22;3555;53.248;10.336;2023-12-20T13:32:45;6.00;99.90
7028;DHT22;3555;53.248;10.336;2023-12-20T13:35:12;6.00;99.90
7028;DHT22;3555;53.248;10.336;2023-12-20T13:37:39;6.00;99.90
7028;DHT22;3555;53.248;10.336;2023-12-20T13:40:07;6.00;99.90
7028;DHT22;3555;53.248;10.336;2023-12-20T13:42:34;6.10;99.90
7028;DHT22;3555;53.248;10.336;2023-12-20T13:45:01;6.00;99.90
7028;DHT22;3555;53.248;10.336;2023-12-20T13:47:31;6.00;99.90
7028;DHT22;3555;53.248;10.336;2023-12-20T13:50:00;5.90;99.90
7028;DHT22;3555;53.248;10.336;2023-12-20T13:52:27;6.00;99.90
7028;DHT22;3555;53.248;10.336;2023-12-20T13:54:53;6.00;99.90
7028;DHT22;3555;53.248;10.336;2023-12-20T13:57:20;5.90;99.90
7028;DHT22;3555;53.248;10.336;2023-12-20T13:59:47;5.90;99.90
7028;DHT22;3555;53.248;10.336;2023-12-20T14:02:14;5.90;99.90
7028;DHT22;3555;53.248;10.336;2023-12-20T14:04:43;5.90;99.90
7028;DHT22;3555;53.248;10.336;2023-12-20T14:07:10;5.90;99.90
7028;DHT22;3555;53.248;10.336;2023-12-20T14:09:37;5.80;99.90
7028;DHT22;3555;53.248;10.336;2023-12-20T14:12:04;5.80;99.90
7028;DHT22;3555;53.248;10.336;2023-12-20T14:14:31;5.80;99.90
7028;DHT22;3555;53.248;10.336;2023-12-20T14:16:58;5.80;99.90
7028;DHT22;3555;53.248;10.336;2023-12-20T14:19:25;5.80;99.90
7028;DHT22;3555;53.248;10.336;2023-12-20T14:21:53;5.90;99.90
7028;DHT22;3555;53.248;10.336;2023-12-20T14:24:20;5.90;99.90
7028;DHT22;3555;53.248;10.336;2023-12-20T14:26:47;5.90;99.90
7028;DHT22;3555;53.248;10.336;2023-12-20T14:29:14;5.90;99.90
7028;DHT22;3555;53.248;10.336;2023-12-20T14:31:40;6.00;99.90
7028;DHT22;3555;53.248;10.336;2023-12-20T14:34:07;5.90;99.90
7028;DHT22;3555;53.248;10.336;2023-12-20T14:36:34;5.90;99.90
7028;DHT22;3555;53.248;10.336;2023-12-20T14:39:03;5.80;99.90
7028;DHT22;3555;53.248;10.336;2023-12-20T14:41:30;5.90;99.90
7028;DHT22;3555;53.248;10.336;2023-12-20T14:43:57;5.90;99.90
7028;DHT22;3555;53.248;10.336;2023-12-20T14:46:25;5.80;99.90
7028;DHT22;3555;53.248;10.336;2023-12-20T14:48:52;5.80;99.90
7028;DHT22;3555;53.248;10.336;2023-12-20T14:51:19;5.70;99.90
7028;DHT22;3555;53.248;10.336;2023-12-20T14:53:46;5.70;99.90
7028;DHT22;3555;53.248;10.336;2023-12-20T14:56:14;5.70;99.90
7028;DHT22;3555;53.248;10.336;2023-12-20T14:58:41;5.70;99.90
7028;DHT22;3555;53.248;10.336;2023-12-20T15:01:08;5.60;99.90
7028;DHT22;3555;53.248;10.336;2023-12-20T15:03:35;5.70;99.90
7028;DHT22;3555;53.248;10.336;2023-12-20T15:06:02;5.60;99.90
7028;DHT22;3555;53.248;10.336;2023-12-20T15:08:29;5.70;99.90
7028;DHT22;3555;53.248;10.336;2023-12-20T15:10:56;5.70;99.90
7028;DHT22;3555;53.248;10.336;2023-12-20T15:13:24;5.70;99.90
7028;DHT22;3555;53.248;10.336;2023-12-20T15:15:51;5.60;99.90
7028;DHT22;3555;53.248;10.336;2023-12-20T15:18:18;5.60;99.90
7028;DHT22;3555;53.248;10.336;2023-12-20T15:20:45;5.60;99.90
7028;DHT22;3555;53.248;10.336;2023-12-20T15:23:13;5.60;99.90
7028;DHT22;3555;53.248;10.336;2023-12-20T15:25:40;5.50;99.90
7028;DHT22;3555;53.248;10.336;2023-12-20T15:28:07;5.60;99.90
7028;DHT22;3555;53.248;10.336;2023-12-20T15:30:35;5.60;99.90
7028;DHT22;3555;53.248;10.336;2023-12-20T15:33:02;5.60;99.90
7028;DHT22;3555;53.248;10.336;2023-12-20T15:35:29;5.60;99.90
7028;DHT22;3555;53.248;10.336;2023-12-20T15:37:56;5.60;99.90
7028;DHT22;3555;53.248;10.336;2023-12-20T15:40:24;5.60;99.90
7028;DHT22;3555;53.248;10.336;2023-12-20T15:42:50;5.60;99.90
7028;DHT22;3555;53.248;10.336;2023-12-20T15:45:18;5.60;99.90
7028;DHT22;3555;53.248;10.336;2023-12-20T15:47:46;5.50;99.90
7028;DHT22;3555;53.248;10.336;2023-12-20T15:50:13;5.60;99.90
7028;DHT22;3555;53.248;10.336;2023-12-20T15:52:40;5.60;99.90
7028;DHT22;3555;53.248;10.336;2023-12-20T15:55:08;5.60;99.90
7028;DHT22;3555;53.248;10.336;2023-12-20T15:57:35;5.60;99.90
7028;DHT22;3555;53.248;10.336;2023-12-20T16:00:03;5.60;99.90
7028;DHT22;3555;53.248;10.336;2023-12-20T16:02:30;5.40;99.90